createdAt,value
2022-08-19T00:01:39.593Z,99029.78
2022-08-19T00:04:42.995Z,99028.91
2022-08-19T00:07:46.743Z,99039.00
2022-08-19T00:10:51.480Z,99028.03
2022-08-19T00:13:56.324Z,99029.22
2022-08-19T00:17:00.238Z,99024.09
2022-08-19T00:20:04.298Z,99021.88
2022-08-19T00:23:07.788Z,99017.25
2022-08-19T00:26:13.146Z,99027.47
2022-08-19T00:29:20.143Z,99023.50
2022-08-19T00:32:24.009Z,99030.97
2022-08-19T00:35:28.803Z,99032.16
2022-08-19T00:38:37.578Z,99016.06
2022-08-19T00:41:45.348Z,99014.53
2022-08-19T00:44:51.609Z,99009.97
2022-08-19T00:47:54.869Z,99007.00
2022-08-19T00:50:58.178Z,99003.25
2022-08-19T00:54:04.023Z,99006.94
2022-08-19T00:57:14.122Z,99002.66
2022-08-19T01:00:21.316Z,98990.84
2022-08-19T01:03:25.095Z,98982.22
2022-08-19T01:06:29.160Z,98993.50
2022-08-19T01:09:33.215Z,99001.19
2022-08-19T01:12:38.615Z,98992.72
2022-08-19T01:15:45.860Z,98982.94
2022-08-19T01:18:50.231Z,98991.06
2022-08-19T01:21:59.512Z,98988.38
2022-08-19T01:25:15.004Z,98979.81
2022-08-19T01:28:33.864Z,98995.66
2022-08-19T01:31:43.476Z,99006.19
2022-08-19T01:34:47.863Z,99013.00
2022-08-19T01:37:53.664Z,99020.25
2022-08-19T01:40:58.457Z,99020.44
2022-08-19T01:44:13.806Z,99023.66
2022-08-19T01:47:22.310Z,99032.81
2022-08-19T01:50:26.856Z,99031.25
2022-08-19T01:53:30.604Z,99043.63
2022-08-19T01:56:39.374Z,99043.06
2022-08-19T01:59:45.086Z,99044.13
2022-08-19T02:02:48.995Z,99048.38
2022-08-19T02:05:57.936Z,99044.94
2022-08-19T02:09:01.665Z,99050.31
2022-08-19T02:12:06.813Z,99039.63
2022-08-19T02:15:10.940Z,99058.34
2022-08-19T02:18:14.946Z,99053.03
2022-08-19T02:21:19.610Z,99065.09
2022-08-19T02:24:22.973Z,99068.31
2022-08-19T02:27:27.671Z,99071.00
2022-08-19T02:30:31.081Z,99070.19
2022-08-19T02:33:34.420Z,99065.31
2022-08-19T02:36:37.795Z,99062.13
2022-08-19T02:39:44.984Z,99075.53
2022-08-19T02:42:49.735Z,99068.84
2022-08-19T02:45:53.785Z,99079.84
2022-08-19T02:49:00.464Z,99070.47
2022-08-19T02:52:04.909Z,99075.84
2022-08-19T02:55:09.301Z,99076.63
2022-08-19T02:58:14.415Z,99079.59
2022-08-19T03:01:23.767Z,99086.53
2022-08-19T03:04:27.288Z,99086.00
2022-08-19T03:07:31.522Z,99083.31
2022-08-19T03:10:34.924Z,99087.38
2022-08-19T03:13:39.724Z,99084.66
2022-08-19T03:16:45.144Z,99089.25
2022-08-19T03:19:48.488Z,99097.28
2022-08-19T03:22:51.934Z,99099.94
2022-08-19T03:26:02.806Z,99103.16
2022-08-19T03:29:30.272Z,99098.88
2022-08-19T03:32:34.470Z,99106.41
2022-08-19T03:35:38.507Z,99105.88
2022-08-19T03:38:45.068Z,99108.00
2022-08-19T03:42:30.067Z,99106.66
2022-08-19T03:45:15.830Z,99112.56
2022-08-19T03:48:19.190Z,99112.03
2022-08-19T03:51:30.866Z,99119.50
2022-08-19T03:54:36.749Z,99127.59
2022-08-19T03:57:40.077Z,99121.09
2022-08-19T04:00:46.129Z,99130.53
2022-08-19T04:03:51.241Z,99117.94
2022-08-19T04:06:54.826Z,99120.06
2022-08-19T04:09:58.117Z,99125.66
2022-08-19T04:13:01.444Z,99123.50
2022-08-19T04:16:06.813Z,99133.22
2022-08-19T04:19:10.221Z,99125.16
2022-08-19T04:22:13.671Z,99132.69
2022-08-19T04:25:18.343Z,99135.63
2022-08-19T04:28:21.950Z,99124.41
2022-08-19T04:31:28.867Z,99131.31
2022-08-19T04:34:32.279Z,99133.78
2022-08-19T04:37:35.911Z,99138.09
2022-08-19T04:41:00.578Z,99135.38
2022-08-19T04:44:04.735Z,99143.41
2022-08-19T04:47:10.879Z,99147.16
2022-08-19T04:50:15.202Z,99140.97
2022-08-19T04:53:22.189Z,99143.88
2022-08-19T04:56:27.356Z,99147.38
2022-08-19T04:59:30.688Z,99146.44
2022-08-19T05:02:35.410Z,99149.53
2022-08-19T05:05:45.315Z,99149.53
2022-08-19T05:08:50.019Z,99148.28
2022-08-19T05:11:54.646Z,99143.81
2022-08-19T05:14:58.936Z,99150.00
2022-08-19T05:18:35.640Z,99155.78
2022-08-19T05:21:56.787Z,99158.22
2022-08-19T05:25:12.298Z,99164.69
2022-08-19T05:28:16.593Z,99161.13
2022-08-19T05:31:19.920Z,99163.00
2022-08-19T05:34:27.204Z,99157.09
2022-08-19T05:37:30.542Z,99154.06
2022-08-19T05:40:37.082Z,99161.28
2022-08-19T05:43:40.420Z,99159.91
2022-08-19T05:46:48.026Z,99155.06
2022-08-19T05:49:52.789Z,99162.47
2022-08-19T05:52:56.400Z,99147.53
2022-08-19T05:55:59.834Z,99160.22
2022-08-19T05:59:03.180Z,99170.09
2022-08-19T06:02:08.638Z,99159.53
2022-08-19T06:05:13.958Z,99171.47
2022-08-19T06:08:19.609Z,99178.53
2022-08-19T06:11:25.194Z,99174.81
2022-08-19T06:14:31.659Z,99175.25
2022-08-19T06:17:36.896Z,99175.47
2022-08-19T06:20:55.386Z,99177.94
2022-08-19T06:24:00.349Z,99169.28
2022-08-19T06:27:04.055Z,99167.41
2022-08-19T06:30:08.709Z,99172.06
2022-08-19T06:33:11.981Z,99183.34
2022-08-19T06:36:22.028Z,99185.66
2022-08-19T06:39:30.875Z,99183.78
2022-08-19T06:42:34.251Z,99189.69
2022-08-19T06:45:40.507Z,99185.13
2022-08-19T06:48:45.794Z,99191.72
2022-08-19T06:51:51.745Z,99192.31
2022-08-19T06:54:56.931Z,99189.09
2022-08-19T06:58:04.854Z,99182.13
2022-08-19T07:01:09.683Z,99177.47
2022-08-19T07:04:12.998Z,99179.22
2022-08-19T07:07:20.949Z,99180.69
2022-08-19T07:10:25.851Z,99174.94
2022-08-19T07:13:29.310Z,99171.28
2022-08-19T07:16:32.919Z,99174.97
2022-08-19T07:19:37.884Z,99163.59
2022-08-19T07:22:43.024Z,99168.94
2022-08-19T07:25:53.077Z,99161.94
2022-08-19T07:28:57.292Z,99161.44
2022-08-19T07:32:01.866Z,99156.41
2022-08-19T07:35:06.375Z,99160.53
2022-08-19T07:38:11.442Z,99164.94
2022-08-19T07:41:17.541Z,99156.28
2022-08-19T07:44:22.516Z,99157.44
2022-08-19T07:47:47.748Z,99161.97
2022-08-19T07:50:49.526Z,99168.75
2022-08-19T07:53:54.418Z,99153.09
2022-08-19T07:56:58.031Z,99160.38
2022-08-19T08:00:01.568Z,99154.91
2022-08-19T08:03:16.750Z,99152.56
2022-08-19T08:06:37.658Z,99160.38
2022-08-19T08:09:49.514Z,99161.34
2022-08-19T08:13:09.254Z,99163.41
2022-08-19T08:16:14.147Z,99156.53
2022-08-19T08:19:25.414Z,99161.31
2022-08-19T08:22:46.399Z,99142.78
2022-08-19T08:25:51.714Z,99145.06
2022-08-19T08:28:55.908Z,99148.69
2022-08-19T08:32:00.255Z,99146.31
2022-08-19T08:35:03.891Z,99142.31
2022-08-19T08:38:07.201Z,99145.84
2022-08-19T08:41:23.811Z,99137.03
2022-08-19T08:44:42.183Z,99130.28
2022-08-19T08:47:50.005Z,99132.03
2022-08-19T08:50:58.468Z,99119.50
2022-08-19T08:54:01.831Z,99126.41
2022-08-19T08:57:13.705Z,99117.91
2022-08-19T09:00:19.872Z,99124.09
2022-08-19T09:03:25.671Z,99120.41
2022-08-19T09:06:38.047Z,99119.72
2022-08-19T09:09:47.529Z,99117.06
2022-08-19T09:13:02.048Z,99112.09
2022-08-19T09:16:16.914Z,99109.63
2022-08-19T09:19:22.261Z,99103.56
2022-08-19T09:22:28.015Z,99105.50
2022-08-19T09:25:31.930Z,99100.97
2022-08-19T09:28:38.100Z,99098.72
2022-08-19T09:31:42.468Z,99093.56
2022-08-19T09:34:50.812Z,99092.25
2022-08-19T09:37:57.719Z,99087.47
2022-08-19T09:41:07.409Z,99089.50
2022-08-19T09:44:13.084Z,99093.63
2022-08-19T09:47:16.879Z,99082.75
2022-08-19T09:50:25.410Z,99080.97
2022-08-19T09:53:29.902Z,99077.66
2022-08-19T09:56:35.447Z,99089.16
2022-08-19T09:59:41.509Z,99075.78
2022-08-19T10:02:45.646Z,99074.41
2022-08-19T10:05:54.485Z,99065.28
2022-08-19T10:08:58.719Z,99073.84
2022-08-19T10:12:02.932Z,99063.75
2022-08-19T10:15:09.435Z,99048.28
2022-08-19T10:18:13.319Z,99053.47
2022-08-19T10:21:19.185Z,99046.22
2022-08-19T10:24:25.320Z,99043.38
2022-08-19T10:27:28.847Z,99036.16
2022-08-19T10:30:38.041Z,99041.84
2022-08-19T10:33:53.447Z,99030.97
2022-08-19T10:37:01.078Z,99033.84
2022-08-19T10:40:07.061Z,99037.50
2022-08-19T10:43:10.434Z,99042.69
2022-08-19T10:46:17.492Z,99031.22
2022-08-19T10:49:22.444Z,99034.38
2022-08-19T10:52:35.214Z,99020.75
2022-08-19T10:56:00.114Z,99028.81
2022-08-19T10:59:04.035Z,99019.16
2022-08-19T11:02:12.628Z,99028.94
2022-08-19T11:05:16.148Z,99020.78
2022-08-19T11:08:23.131Z,99015.34
2022-08-19T11:11:27.217Z,99010.25
2022-08-19T11:14:32.132Z,99003.97
2022-08-19T11:17:41.719Z,99004.72
2022-08-19T11:20:44.995Z,98998.50
2022-08-19T11:23:49.874Z,98996.47
2022-08-19T11:26:57.968Z,98991.44
2022-08-19T11:30:01.490Z,98992.44
2022-08-19T11:33:06.294Z,98987.72
2022-08-19T11:36:10.283Z,98981.56
2022-08-19T11:39:20.672Z,98990.78
2022-08-19T11:42:37.749Z,98988.63
2022-08-19T11:45:40.983Z,98991.16
2022-08-19T11:48:46.221Z,98986.09
2022-08-19T11:51:51.296Z,98980.78
2022-08-19T11:54:55.179Z,98967.91
2022-08-19T11:57:58.933Z,98967.00
2022-08-19T12:01:02.784Z,98970.78
2022-08-19T12:04:07.584Z,98964.47
2022-08-19T12:07:11.205Z,98963.69
2022-08-19T12:10:15.514Z,98962.25
2022-08-19T12:13:22.781Z,98964.19
2022-08-19T12:16:29.526Z,98959.63
2022-08-19T12:19:35.068Z,98953.66
2022-08-19T12:22:39.324Z,98949.25
2022-08-19T12:25:52.634Z,98947.22
2022-08-19T12:28:56.257Z,98949.16
2022-08-19T12:32:03.952Z,98937.91
2022-08-19T12:35:12.433Z,98942.97
2022-08-19T12:38:16.655Z,98933.25
2022-08-19T12:41:22.320Z,98939.34
2022-08-19T12:44:29.408Z,98941.56
2022-08-19T12:47:33.019Z,98925.75
2022-08-19T12:50:37.862Z,98931.53
2022-08-19T12:53:41.279Z,98926.56
2022-08-19T12:56:44.955Z,98921.13
2022-08-19T12:59:48.258Z,98927.41
2022-08-19T13:02:54.592Z,98913.22
2022-08-19T13:05:59.344Z,98917.28
2022-08-19T13:09:02.684Z,98913.53
2022-08-19T13:12:08.791Z,98905.19
2022-08-19T13:15:15.083Z,98908.06
2022-08-19T13:18:18.756Z,98909.13
2022-08-19T13:21:25.415Z,98899.41
2022-08-19T13:24:33.507Z,98909.16
2022-08-19T13:27:38.049Z,98898.47
2022-08-19T13:30:58.547Z,98894.53
2022-08-19T13:34:01.902Z,98891.09
2022-08-19T13:37:07.313Z,98892.66
2022-08-19T13:40:13.905Z,98891.41
2022-08-19T13:43:23.451Z,98888.69
2022-08-19T13:46:28.412Z,98883.63
2022-08-19T13:49:32.038Z,98881.94
2022-08-19T13:52:36.742Z,98882.00
2022-08-19T13:55:40.966Z,98884.94
2022-08-19T13:58:44.703Z,98882.44
2022-08-19T14:01:48.145Z,98870.31
2022-08-19T14:04:51.576Z,98869.84
2022-08-19T14:07:57.248Z,98875.31
2022-08-19T14:11:05.403Z,98870.59
2022-08-19T14:14:12.250Z,98871.06
2022-08-19T14:17:19.279Z,98865.31
2022-08-19T14:20:26.041Z,98866.22
2022-08-19T14:23:31.307Z,98861.47
2022-08-19T14:26:34.717Z,98868.16
2022-08-19T14:29:38.233Z,98866.63
2022-08-19T14:32:41.564Z,98862.09
2022-08-19T14:35:45.814Z,98867.66
2022-08-19T14:38:51.101Z,98863.91
2022-08-19T14:41:54.413Z,98866.75
2022-08-19T14:45:00.727Z,98856.63
2022-08-19T14:48:04.307Z,98862.78
2022-08-19T14:51:08.258Z,98856.41
2022-08-19T14:54:13.124Z,98855.53
2022-08-19T14:57:16.909Z,98855.28
2022-08-19T15:00:20.246Z,98848.97
2022-08-19T15:03:23.548Z,98848.50
2022-08-19T15:06:28.063Z,98840.72
2022-08-19T15:09:33.178Z,98835.72
2022-08-19T15:12:36.678Z,98844.59
2022-08-19T15:15:40.130Z,98847.47
2022-08-19T15:18:45.419Z,98836.31
2022-08-19T15:21:48.911Z,98845.19
2022-08-19T15:24:55.540Z,98838.72
2022-08-19T15:28:01.944Z,98837.06
2022-08-19T15:31:05.801Z,98828.84
2022-08-19T15:34:09.372Z,98828.38
2022-08-19T15:37:12.771Z,98827.50
2022-08-19T15:40:17.517Z,98825.13
2022-08-19T15:43:22.493Z,98824.56
2022-08-19T15:46:29.437Z,98818.75
2022-08-19T15:49:33.296Z,98822.63
2022-08-19T15:52:36.713Z,98816.59
2022-08-19T15:55:51.259Z,98817.97
2022-08-19T15:59:12.200Z,98814.13
2022-08-19T16:02:33.241Z,98816.38
2022-08-19T16:05:54.836Z,98812.00
2022-08-19T16:09:01.995Z,98810.19
2022-08-19T16:12:08.726Z,98807.44
2022-08-19T16:15:13.755Z,98812.31
2022-08-19T16:18:17.106Z,98816.25
2022-08-19T16:21:21.549Z,98809.66
2022-08-19T16:24:28.065Z,98814.53
2022-08-19T16:27:32.902Z,98812.78
2022-08-19T16:30:37.536Z,98811.59
2022-08-19T16:33:41.453Z,98811.44
2022-08-19T16:36:45.888Z,98814.47
2022-08-19T16:39:49.302Z,98816.78
2022-08-19T16:42:54.090Z,98822.66
2022-08-19T16:45:57.985Z,98814.16
2022-08-19T16:49:01.475Z,98819.28
2022-08-19T16:52:06.165Z,98825.38
2022-08-19T16:55:09.594Z,98825.25
2022-08-19T16:58:14.359Z,98824.66
2022-08-19T17:01:18.049Z,98825.19
2022-08-19T17:04:21.395Z,98827.91
2022-08-19T17:07:24.765Z,98828.84
2022-08-19T17:10:28.156Z,98827.13
2022-08-19T17:13:32.905Z,98837.66
2022-08-19T17:16:37.669Z,98837.38
2022-08-19T17:19:42.597Z,98846.13
2022-08-19T17:22:45.962Z,98853.78
2022-08-19T17:25:50.939Z,98850.88
2022-08-19T17:28:57.387Z,98863.47
2022-08-19T17:32:01.035Z,98861.72
2022-08-19T17:35:05.231Z,98866.97
2022-08-19T17:38:09.696Z,98862.50
2022-08-19T17:41:13.196Z,98876.31
2022-08-19T17:44:18.988Z,98877.38
2022-08-19T17:47:22.340Z,98882.47
2022-08-19T17:50:26.028Z,98896.66
2022-08-19T17:53:29.665Z,98892.47
2022-08-19T17:56:32.956Z,98895.94
2022-08-19T17:59:38.043Z,98906.78
2022-08-19T18:02:53.313Z,98909.97
2022-08-19T18:05:57.097Z,98906.59
2022-08-19T18:09:00.382Z,98921.19
2022-08-19T18:12:04.934Z,98931.56
2022-08-19T18:15:11.071Z,98930.66
2022-08-19T18:18:15.098Z,98937.25
2022-08-19T18:21:19.360Z,98945.53
2022-08-19T18:24:22.711Z,98946.50
2022-08-19T18:27:27.171Z,98945.19
2022-08-19T18:30:34.400Z,98946.78
2022-08-19T18:33:44.208Z,98949.88
2022-08-19T18:36:53.739Z,98950.06
2022-08-19T18:40:15.936Z,98950.25
2022-08-19T18:43:36.702Z,98953.75
2022-08-19T18:47:07.053Z,98960.78
2022-08-19T18:50:12.994Z,98957.50
2022-08-19T18:53:17.246Z,98961.69
2022-08-19T18:56:24.036Z,98963.69
2022-08-19T18:59:29.316Z,98973.41
2022-08-19T19:02:39.093Z,98974.00
2022-08-19T19:05:42.338Z,98973.50
2022-08-19T19:08:46.031Z,98973.81
2022-08-19T19:11:52.895Z,98978.31
2022-08-19T19:14:58.117Z,98974.31
2022-08-19T19:18:02.800Z,98984.13
2022-08-19T19:21:06.432Z,98987.41
2022-08-19T19:24:11.832Z,98984.97
2022-08-19T19:27:20.389Z,98985.81
2022-08-19T19:30:26.027Z,98987.31
2022-08-19T19:33:30.948Z,98992.91
2022-08-19T19:36:34.441Z,98986.81
2022-08-19T19:39:45.958Z,98989.72
2022-08-19T19:42:51.961Z,98981.84
2022-08-19T19:45:55.416Z,98997.31
2022-08-19T19:49:00.755Z,98992.84
2022-08-19T19:52:04.365Z,98989.00
2022-08-19T19:55:09.600Z,98996.06
2022-08-19T19:58:12.925Z,98994.69
2022-08-19T20:01:21.054Z,98990.44
2022-08-19T20:04:27.728Z,98998.00
2022-08-19T20:07:44.798Z,99006.59
2022-08-19T20:10:48.086Z,99016.16
2022-08-19T20:13:51.429Z,99012.75
2022-08-19T20:16:56.378Z,99019.31
2022-08-19T20:20:01.681Z,99013.19
2022-08-19T20:23:05.331Z,99029.38
2022-08-19T20:26:12.134Z,99026.78
2022-08-19T20:29:39.237Z,99030.47
2022-08-19T20:32:46.620Z,99023.91
2022-08-19T20:35:51.403Z,99024.00
2022-08-19T20:38:54.889Z,99036.38
2022-08-19T20:41:58.598Z,99034.72
2022-08-19T20:45:04.194Z,99032.97
2022-08-19T20:48:10.593Z,99033.50
2022-08-19T20:51:15.796Z,99037.59
2022-08-19T20:54:19.224Z,99042.50
2022-08-19T20:57:22.577Z,99044.13
2022-08-19T21:00:25.913Z,99044.34
2022-08-19T21:03:31.474Z,99043.63
2022-08-19T21:06:36.207Z,99035.88
2022-08-19T21:09:39.561Z,99047.78
2022-08-19T21:12:44.464Z,99045.44
2022-08-19T21:15:48.281Z,99051.91
2022-08-19T21:18:51.786Z,99049.47
2022-08-19T21:21:56.480Z,99053.06
2022-08-19T21:25:01.810Z,99054.06
2022-08-19T21:28:06.075Z,99056.50
2022-08-19T21:31:10.560Z,99061.19
2022-08-19T21:34:14.382Z,99051.91
2022-08-19T21:37:25.205Z,99052.03
2022-08-19T21:40:29.930Z,99051.41
2022-08-19T21:43:33.505Z,99060.94
2022-08-19T21:46:37.599Z,99065.63
2022-08-19T21:49:41.112Z,99065.50
2022-08-19T21:52:46.842Z,99069.97
2022-08-19T21:55:53.505Z,99057.09
2022-08-19T21:58:57.181Z,99075.78
2022-08-19T22:02:15.761Z,99068.53
2022-08-19T22:05:24.730Z,99066.22
2022-08-19T22:08:29.922Z,99067.94
2022-08-19T22:11:33.987Z,99075.00
2022-08-19T22:14:37.818Z,99077.22
2022-08-19T22:17:42.066Z,99077.13
2022-08-19T22:20:46.941Z,99081.44
2022-08-19T22:23:51.671Z,99072.47
2022-08-19T22:26:54.978Z,99080.13
2022-08-19T22:29:58.339Z,99083.59
2022-08-19T22:33:03.640Z,99089.06
2022-08-19T22:36:08.605Z,99087.84
2022-08-19T22:39:13.516Z,99094.38
2022-08-19T22:42:20.198Z,99092.66
2022-08-19T22:45:23.908Z,99096.56
2022-08-19T22:48:29.201Z,99090.38
2022-08-19T22:51:49.926Z,99092.41
2022-08-19T22:54:57.056Z,99090.88
2022-08-19T22:58:00.348Z,99095.81
2022-08-19T23:01:03.820Z,99090.44
2022-08-19T23:04:07.193Z,99084.09
2022-08-19T23:07:10.627Z,99088.91
2022-08-19T23:10:15.426Z,99085.50
2022-08-19T23:13:31.924Z,99087.19
2022-08-19T23:16:36.067Z,99089.41
2022-08-19T23:19:39.685Z,99083.22
2022-08-19T23:22:44.075Z,99085.41
2022-08-19T23:25:50.344Z,99080.75
2022-08-19T23:29:10.943Z,99073.09
2022-08-19T23:32:16.131Z,99081.34
2022-08-19T23:35:19.824Z,99072.69
2022-08-19T23:38:24.065Z,99078.06
2022-08-19T23:41:28.872Z,99070.59
2022-08-19T23:44:32.195Z,99071.06
2022-08-19T23:47:37.199Z,99074.53
2022-08-19T23:50:46.549Z,99073.75
2022-08-19T23:53:50.126Z,99067.56
2022-08-19T23:56:54.971Z,99064.81
2022-08-19T23:59:58.777Z,99067.16
